sensor_id;sensor_type;location;lat;lon;timestamp;temperature;humidity
67641;SHT31;54434;50.096;20.082;2022-10-22T00:02:57;8.11;83.11
67641;SHT31;54434;50.096;20.082;2022-10-22T00:05:33;8.10;83.12
67641;SHT31;54434;50.096;20.082;2022-10-22T00:08:09;8.09;83.27
67641;SHT31;54434;50.096;20.082;2022-10-22T00:10:45;8.09;83.29
67641;SHT31;54434;50.096;20.082;2022-10-22T00:13:23;8.08;83.32
67641;SHT31;54434;50.096;20.082;2022-10-22T00:15:59;8.08;83.37
67641;SHT31;54434;50.096;20.082;2022-10-22T00:18:35;8.08;83.38
67641;SHT31;54434;50.096;20.082;2022-10-22T00:21:11;8.05;83.37
67641;SHT31;54434;50.096;20.082;2022-10-22T00:23:47;8.07;83.49
67641;SHT31;54434;50.096;20.082;2022-10-22T00:26:23;8.07;83.48
67641;SHT31;54434;50.096;20.082;2022-10-22T00:28:59;8.06;83.55
67641;SHT31;54434;50.096;20.082;2022-10-22T00:31:35;8.06;83.60
67641;SHT31;54434;50.096;20.082;2022-10-22T00:34:11;8.06;83.61
67641;SHT31;54434;50.096;20.082;2022-10-22T00:36:47;8.06;83.60
67641;SHT31;54434;50.096;20.082;2022-10-22T00:39:26;8.06;83.69
67641;SHT31;54434;50.096;20.082;2022-10-22T00:42:02;8.03;83.82
67641;SHT31;54434;50.096;20.082;2022-10-22T00:45:03;7.98;84.03
67641;SHT31;54434;50.096;20.082;2022-10-22T00:47:54;7.95;84.13
67641;SHT31;54434;50.096;20.082;2022-10-22T00:50:38;7.99;84.06
67641;SHT31;54434;50.096;20.082;2022-10-22T00:53:19;8.00;83.96
67641;SHT31;54434;50.096;20.082;2022-10-22T00:56:01;8.00;83.92
67641;SHT31;54434;50.096;20.082;2022-10-22T00:58:40;7.99;83.90
67641;SHT31;54434;50.096;20.082;2022-10-22T01:01:24;7.98;83.90
67641;SHT31;54434;50.096;20.082;2022-10-22T01:04:03;8.03;83.99
67641;SHT31;54434;50.096;20.082;2022-10-22T01:06:39;8.02;83.94
67641;SHT31;54434;50.096;20.082;2022-10-22T01:09:18;7.98;84.02
67641;SHT31;54434;50.096;20.082;2022-10-22T01:12:08;7.96;84.18
67641;SHT31;54434;50.096;20.082;2022-10-22T01:14:59;7.97;84.20
67641;SHT31;54434;50.096;20.082;2022-10-22T01:17:51;7.97;84.19
67641;SHT31;54434;50.096;20.082;2022-10-22T01:20:44;7.98;84.23
67641;SHT31;54434;50.096;20.082;2022-10-22T01:27:10;8.01;84.20
67641;SHT31;54434;50.096;20.082;2022-10-22T01:30:05;8.00;84.12
67641;SHT31;54434;50.096;20.082;2022-10-22T01:32:46;7.99;84.07
67641;SHT31;54434;50.096;20.082;2022-10-22T01:35:28;7.97;83.95
67641;SHT31;54434;50.096;20.082;2022-10-22T01:38:11;7.93;83.87
67641;SHT31;54434;50.096;20.082;2022-10-22T01:40:48;7.89;83.92
67641;SHT31;54434;50.096;20.082;2022-10-22T01:43:26;7.85;83.99
67641;SHT31;54434;50.096;20.082;2022-10-22T01:46:03;7.84;84.08
67641;SHT31;54434;50.096;20.082;2022-10-22T01:48:49;7.80;84.01
67641;SHT31;54434;50.096;20.082;2022-10-22T01:51:51;7.76;83.90
67641;SHT31;54434;50.096;20.082;2022-10-22T01:54:51;7.72;83.82
67641;SHT31;54434;50.096;20.082;2022-10-22T01:57:42;7.68;83.72
67641;SHT31;54434;50.096;20.082;2022-10-22T02:00:28;7.62;83.86
67641;SHT31;54434;50.096;20.082;2022-10-22T02:03:07;7.54;83.87
67641;SHT31;54434;50.096;20.082;2022-10-22T02:05:55;7.48;83.93
67641;SHT31;54434;50.096;20.082;2022-10-22T02:08:36;7.44;83.95
67641;SHT31;54434;50.096;20.082;2022-10-22T02:11:12;7.34;83.68
67641;SHT31;54434;50.096;20.082;2022-10-22T02:13:50;7.27;83.80
67641;SHT31;54434;50.096;20.082;2022-10-22T02:16:34;7.18;83.90
67641;SHT31;54434;50.096;20.082;2022-10-22T02:19:16;7.12;83.94
67641;SHT31;54434;50.096;20.082;2022-10-22T02:21:59;7.04;83.91
67641;SHT31;54434;50.096;20.082;2022-10-22T02:24:35;6.98;83.89
67641;SHT31;54434;50.096;20.082;2022-10-22T02:27:15;6.94;83.84
67641;SHT31;54434;50.096;20.082;2022-10-22T02:30:00;6.87;83.89
67641;SHT31;54434;50.096;20.082;2022-10-22T02:32:42;6.83;84.00
67641;SHT31;54434;50.096;20.082;2022-10-22T02:35:27;6.79;83.97
67641;SHT31;54434;50.096;20.082;2022-10-22T02:38:04;6.72;84.09
67641;SHT31;54434;50.096;20.082;2022-10-22T02:40:41;6.67;84.12
67641;SHT31;54434;50.096;20.082;2022-10-22T02:43:19;6.62;84.21
67641;SHT31;54434;50.096;20.082;2022-10-22T02:45:56;6.57;84.26
67641;SHT31;54434;50.096;20.082;2022-10-22T02:48:32;6.53;84.39
67641;SHT31;54434;50.096;20.082;2022-10-22T02:51:08;6.49;84.44
67641;SHT31;54434;50.096;20.082;2022-10-22T02:53:44;6.46;84.54
67641;SHT31;54434;50.096;20.082;2022-10-22T02:56:20;6.43;84.66
67641;SHT31;54434;50.096;20.082;2022-10-22T02:58:56;6.38;84.67
67641;SHT31;54434;50.096;20.082;2022-10-22T03:01:32;6.35;84.62
67641;SHT31;54434;50.096;20.082;2022-10-22T03:04:08;6.34;84.58
67641;SHT31;54434;50.096;20.082;2022-10-22T03:06:44;6.30;84.46
67641;SHT31;54434;50.096;20.082;2022-10-22T03:09:20;6.23;84.55
67641;SHT31;54434;50.096;20.082;2022-10-22T03:11:56;6.19;84.56
67641;SHT31;54434;50.096;20.082;2022-10-22T03:14:31;6.17;84.53
67641;SHT31;54434;50.096;20.082;2022-10-22T03:17:08;6.13;84.44
67641;SHT31;54434;50.096;20.082;2022-10-22T03:19:44;6.09;84.51
67641;SHT31;54434;50.096;20.082;2022-10-22T03:22:22;6.03;84.52
67641;SHT31;54434;50.096;20.082;2022-10-22T03:25:05;5.99;84.59
67641;SHT31;54434;50.096;20.082;2022-10-22T03:27:47;5.95;84.51
67641;SHT31;54434;50.096;20.082;2022-10-22T03:30:27;5.91;84.57
67641;SHT31;54434;50.096;20.082;2022-10-22T03:33:03;5.89;84.50
67641;SHT31;54434;50.096;20.082;2022-10-22T03:35:41;5.86;84.52
67641;SHT31;54434;50.096;20.082;2022-10-22T03:38:19;5.84;84.64
67641;SHT31;54434;50.096;20.082;2022-10-22T03:40:56;5.81;84.71
67641;SHT31;54434;50.096;20.082;2022-10-22T03:43:32;5.74;84.94
67641;SHT31;54434;50.096;20.082;2022-10-22T03:46:12;5.70;85.09
67641;SHT31;54434;50.096;20.082;2022-10-22T03:48:47;5.66;84.95
67641;SHT31;54434;50.096;20.082;2022-10-22T03:51:23;5.63;85.05
67641;SHT31;54434;50.096;20.082;2022-10-22T03:54:01;5.63;85.18
67641;SHT31;54434;50.096;20.082;2022-10-22T03:56:37;5.64;85.34
67641;SHT31;54434;50.096;20.082;2022-10-22T03:59:14;5.64;85.51
67641;SHT31;54434;50.096;20.082;2022-10-22T04:01:49;5.66;85.77
67641;SHT31;54434;50.096;20.082;2022-10-22T04:04:25;5.69;86.04
67641;SHT31;54434;50.096;20.082;2022-10-22T04:07:01;5.71;86.13
67641;SHT31;54434;50.096;20.082;2022-10-22T04:09:38;5.69;86.02
67641;SHT31;54434;50.096;20.082;2022-10-22T04:12:14;5.68;85.96
67641;SHT31;54434;50.096;20.082;2022-10-22T04:14:50;5.67;85.85
67641;SHT31;54434;50.096;20.082;2022-10-22T04:17:26;5.65;86.06
67641;SHT31;54434;50.096;20.082;2022-10-22T04:20:08;5.67;86.28
67641;SHT31;54434;50.096;20.082;2022-10-22T04:22:44;5.66;86.24
67641;SHT31;54434;50.096;20.082;2022-10-22T04:25:20;5.65;86.11
67641;SHT31;54434;50.096;20.082;2022-10-22T04:27:56;5.65;86.14
67641;SHT31;54434;50.096;20.082;2022-10-22T04:30:32;5.65;86.10
67641;SHT31;54434;50.096;20.082;2022-10-22T04:33:09;5.62;85.74
67641;SHT31;54434;50.096;20.082;2022-10-22T04:35:45;5.58;85.68
67641;SHT31;54434;50.096;20.082;2022-10-22T04:38:20;5.55;85.65
67641;SHT31;54434;50.096;20.082;2022-10-22T04:40:56;5.57;86.05
67641;SHT31;54434;50.096;20.082;2022-10-22T04:43:42;5.60;86.31
67641;SHT31;54434;50.096;20.082;2022-10-22T04:46:18;5.63;86.51
67641;SHT31;54434;50.096;20.082;2022-10-22T04:48:56;5.64;86.52
67641;SHT31;54434;50.096;20.082;2022-10-22T04:51:34;5.65;86.61
67641;SHT31;54434;50.096;20.082;2022-10-22T04:54:10;5.67;86.60
67641;SHT31;54434;50.096;20.082;2022-10-22T04:56:45;5.69;86.59
67641;SHT31;54434;50.096;20.082;2022-10-22T04:59:21;5.70;86.58
67641;SHT31;54434;50.096;20.082;2022-10-22T05:01:57;5.72;86.63
67641;SHT31;54434;50.096;20.082;2022-10-22T05:04:33;5.74;86.80
67641;SHT31;54434;50.096;20.082;2022-10-22T05:07:09;5.79;86.91
67641;SHT31;54434;50.096;20.082;2022-10-22T05:09:45;5.83;87.04
67641;SHT31;54434;50.096;20.082;2022-10-22T05:12:21;5.88;87.10
67641;SHT31;54434;50.096;20.082;2022-10-22T05:14:57;5.92;87.13
67641;SHT31;54434;50.096;20.082;2022-10-22T05:17:35;5.94;87.08
67641;SHT31;54434;50.096;20.082;2022-10-22T05:20:12;5.96;87.00
67641;SHT31;54434;50.096;20.082;2022-10-22T05:22:48;5.98;86.93
67641;SHT31;54434;50.096;20.082;2022-10-22T05:25:24;5.97;86.80
67641;SHT31;54434;50.096;20.082;2022-10-22T05:28:01;5.95;86.75
67641;SHT31;54434;50.096;20.082;2022-10-22T05:30:37;5.94;86.86
67641;SHT31;54434;50.096;20.082;2022-10-22T05:33:13;5.94;86.82
67641;SHT31;54434;50.096;20.082;2022-10-22T05:35:54;5.93;86.69
67641;SHT31;54434;50.096;20.082;2022-10-22T05:38:31;5.94;86.67
67641;SHT31;54434;50.096;20.082;2022-10-22T05:41:09;5.95;86.66
67641;SHT31;54434;50.096;20.082;2022-10-22T05:43:48;5.96;86.64
67641;SHT31;54434;50.096;20.082;2022-10-22T05:46:33;5.99;86.62
67641;SHT31;54434;50.096;20.082;2022-10-22T05:49:13;6.04;86.60
67641;SHT31;54434;50.096;20.082;2022-10-22T05:51:49;6.09;86.54
67641;SHT31;54434;50.096;20.082;2022-10-22T05:54:25;6.13;86.46
67641;SHT31;54434;50.096;20.082;2022-10-22T05:57:01;6.19;86.58
67641;SHT31;54434;50.096;20.082;2022-10-22T05:59:37;6.28;86.51
67641;SHT31;54434;50.096;20.082;2022-10-22T06:02:13;6.35;86.37
67641;SHT31;54434;50.096;20.082;2022-10-22T06:04:49;6.43;86.26
67641;SHT31;54434;50.096;20.082;2022-10-22T06:07:25;6.55;86.48
67641;SHT31;54434;50.096;20.082;2022-10-22T06:10:01;6.68;86.58
67641;SHT31;54434;50.096;20.082;2022-10-22T06:12:40;6.76;86.52
67641;SHT31;54434;50.096;20.082;2022-10-22T06:15:18;6.87;86.71
67641;SHT31;54434;50.096;20.082;2022-10-22T06:17:54;6.96;86.44
67641;SHT31;54434;50.096;20.082;2022-10-22T06:20:29;7.08;86.53
67641;SHT31;54434;50.096;20.082;2022-10-22T06:23:06;7.21;86.48
67641;SHT31;54434;50.096;20.082;2022-10-22T06:25:42;7.32;86.24
67641;SHT31;54434;50.096;20.082;2022-10-22T06:28:29;7.47;86.15
67641;SHT31;54434;50.096;20.082;2022-10-22T06:31:07;7.58;86.12
67641;SHT31;54434;50.096;20.082;2022-10-22T06:33:43;7.72;86.17
67641;SHT31;54434;50.096;20.082;2022-10-22T06:36:20;7.86;86.12
67641;SHT31;54434;50.096;20.082;2022-10-22T06:38:57;8.02;85.93
67641;SHT31;54434;50.096;20.082;2022-10-22T06:41:33;8.16;85.81
67641;SHT31;54434;50.096;20.082;2022-10-22T06:44:10;8.33;85.71
67641;SHT31;54434;50.096;20.082;2022-10-22T06:46:51;8.50;85.20
67641;SHT31;54434;50.096;20.082;2022-10-22T06:49:27;8.69;84.90
67641;SHT31;54434;50.096;20.082;2022-10-22T06:52:03;8.99;84.75
67641;SHT31;54434;50.096;20.082;2022-10-22T06:54:39;9.41;84.13
67641;SHT31;54434;50.096;20.082;2022-10-22T06:57:15;9.84;83.15
67641;SHT31;54434;50.096;20.082;2022-10-22T06:59:52;10.32;82.26
67641;SHT31;54434;50.096;20.082;2022-10-22T07:02:27;10.81;80.67
67641;SHT31;54434;50.096;20.082;2022-10-22T07:05:04;11.13;79.87
67641;SHT31;54434;50.096;20.082;2022-10-22T07:07:41;11.39;79.12
67641;SHT31;54434;50.096;20.082;2022-10-22T07:10:17;11.62;78.60
67641;SHT31;54434;50.096;20.082;2022-10-22T07:12:59;11.88;78.45
67641;SHT31;54434;50.096;20.082;2022-10-22T07:15:34;12.23;78.13
67641;SHT31;54434;50.096;20.082;2022-10-22T07:18:10;12.58;76.94
67641;SHT31;54434;50.096;20.082;2022-10-22T07:20:47;12.79;75.61
67641;SHT31;54434;50.096;20.082;2022-10-22T07:23:23;12.89;74.60
67641;SHT31;54434;50.096;20.082;2022-10-22T07:26:01;12.98;74.28
67641;SHT31;54434;50.096;20.082;2022-10-22T07:28:39;13.09;74.16
67641;SHT31;54434;50.096;20.082;2022-10-22T07:31:16;13.17;73.73
67641;SHT31;54434;50.096;20.082;2022-10-22T07:33:52;13.22;73.94
67641;SHT31;54434;50.096;20.082;2022-10-22T07:36:29;13.25;74.15
67641;SHT31;54434;50.096;20.082;2022-10-22T07:39:05;13.26;73.37
67641;SHT31;54434;50.096;20.082;2022-10-22T07:41:41;13.26;72.65
67641;SHT31;54434;50.096;20.082;2022-10-22T07:44:16;13.28;72.44
67641;SHT31;54434;50.096;20.082;2022-10-22T07:46:52;13.33;72.12
67641;SHT31;54434;50.096;20.082;2022-10-22T07:49:28;13.40;71.90
67641;SHT31;54434;50.096;20.082;2022-10-22T07:52:05;13.38;71.41
67641;SHT31;54434;50.096;20.082;2022-10-22T07:54:41;13.35;71.18
67641;SHT31;54434;50.096;20.082;2022-10-22T07:57:17;13.31;70.80
67641;SHT31;54434;50.096;20.082;2022-10-22T07:59:53;13.23;70.75
67641;SHT31;54434;50.096;20.082;2022-10-22T08:02:29;13.14;70.37
67641;SHT31;54434;50.096;20.082;2022-10-22T08:05:07;13.08;70.54
67641;SHT31;54434;50.096;20.082;2022-10-22T08:07:44;13.02;70.52
67641;SHT31;54434;50.096;20.082;2022-10-22T08:10:20;13.00;70.58
67641;SHT31;54434;50.096;20.082;2022-10-22T08:12:57;13.04;70.72
67641;SHT31;54434;50.096;20.082;2022-10-22T08:15:32;13.14;70.75
67641;SHT31;54434;50.096;20.082;2022-10-22T08:18:09;13.27;70.68
67641;SHT31;54434;50.096;20.082;2022-10-22T08:20:45;13.33;69.84
67641;SHT31;54434;50.096;20.082;2022-10-22T08:23:21;13.38;69.95
67641;SHT31;54434;50.096;20.082;2022-10-22T08:25:59;13.42;69.91
67641;SHT31;54434;50.096;20.082;2022-10-22T08:28:35;13.51;70.06
67641;SHT31;54434;50.096;20.082;2022-10-22T08:31:11;13.63;69.70
67641;SHT31;54434;50.096;20.082;2022-10-22T08:33:48;13.74;68.92
67641;SHT31;54434;50.096;20.082;2022-10-22T08:36:23;13.78;68.71
67641;SHT31;54434;50.096;20.082;2022-10-22T08:38:59;13.89;69.03
67641;SHT31;54434;50.096;20.082;2022-10-22T08:41:38;14.07;69.17
67641;SHT31;54434;50.096;20.082;2022-10-22T08:44:41;14.15;68.46
67641;SHT31;54434;50.096;20.082;2022-10-22T08:47:43;14.24;68.25
67641;SHT31;54434;50.096;20.082;2022-10-22T08:50:36;14.38;68.23
67641;SHT31;54434;50.096;20.082;2022-10-22T08:53:19;14.50;67.92
67641;SHT31;54434;50.096;20.082;2022-10-22T08:56:02;14.56;66.90
67641;SHT31;54434;50.096;20.082;2022-10-22T08:58:39;14.59;66.91
67641;SHT31;54434;50.096;20.082;2022-10-22T09:01:23;14.60;66.90
67641;SHT31;54434;50.096;20.082;2022-10-22T09:04:10;14.56;66.85
67641;SHT31;54434;50.096;20.082;2022-10-22T09:06:56;14.49;66.86
67641;SHT31;54434;50.096;20.082;2022-10-22T09:09:34;14.39;66.59
67641;SHT31;54434;50.096;20.082;2022-10-22T09:12:19;14.30;66.96
67641;SHT31;54434;50.096;20.082;2022-10-22T09:14:58;14.26;66.93
67641;SHT31;54434;50.096;20.082;2022-10-22T09:17:37;14.20;67.29
67641;SHT31;54434;50.096;20.082;2022-10-22T09:20:33;14.15;67.11
67641;SHT31;54434;50.096;20.082;2022-10-22T09:23:26;14.11;67.33
67641;SHT31;54434;50.096;20.082;2022-10-22T09:26:14;14.18;67.38
67641;SHT31;54434;50.096;20.082;2022-10-22T09:28:51;14.30;67.26
67641;SHT31;54434;50.096;20.082;2022-10-22T09:31:31;14.47;67.15
67641;SHT31;54434;50.096;20.082;2022-10-22T09:34:07;14.60;66.52
67641;SHT31;54434;50.096;20.082;2022-10-22T09:36:47;14.72;65.97
67641;SHT31;54434;50.096;20.082;2022-10-22T09:39:36;14.82;65.44
67641;SHT31;54434;50.096;20.082;2022-10-22T09:42:19;14.92;65.65
67641;SHT31;54434;50.096;20.082;2022-10-22T09:44:58;14.98;65.10
67641;SHT31;54434;50.096;20.082;2022-10-22T09:47:36;14.96;64.71
67641;SHT31;54434;50.096;20.082;2022-10-22T09:50:40;14.83;64.69
67641;SHT31;54434;50.096;20.082;2022-10-22T09:53:20;14.82;64.76
67641;SHT31;54434;50.096;20.082;2022-10-22T09:56:05;14.69;64.44
67641;SHT31;54434;50.096;20.082;2022-10-22T09:59:00;14.60;64.91
67641;SHT31;54434;50.096;20.082;2022-10-22T10:01:38;14.55;65.06
67641;SHT31;54434;50.096;20.082;2022-10-22T10:04:15;14.47;65.41
67641;SHT31;54434;50.096;20.082;2022-10-22T10:06:54;14.39;65.52
67641;SHT31;54434;50.096;20.082;2022-10-22T10:09:30;14.28;66.09
67641;SHT31;54434;50.096;20.082;2022-10-22T10:12:15;14.22;66.45
67641;SHT31;54434;50.096;20.082;2022-10-22T10:15:14;14.17;66.43
67641;SHT31;54434;50.096;20.082;2022-10-22T10:18:02;14.16;66.87
67641;SHT31;54434;50.096;20.082;2022-10-22T10:20:52;14.16;66.73
67641;SHT31;54434;50.096;20.082;2022-10-22T10:23:45;14.12;66.83
67641;SHT31;54434;50.096;20.082;2022-10-22T10:26:33;14.08;67.06
67641;SHT31;54434;50.096;20.082;2022-10-22T10:29:30;14.01;67.21
67641;SHT31;54434;50.096;20.082;2022-10-22T10:32:21;13.96;67.36
67641;SHT31;54434;50.096;20.082;2022-10-22T10:35:21;13.95;67.62
67641;SHT31;54434;50.096;20.082;2022-10-22T10:38:11;13.89;67.65
67641;SHT31;54434;50.096;20.082;2022-10-22T10:41:09;13.85;67.83
67641;SHT31;54434;50.096;20.082;2022-10-22T10:44:03;13.81;67.99
67641;SHT31;54434;50.096;20.082;2022-10-22T10:47:02;13.80;68.24
67641;SHT31;54434;50.096;20.082;2022-10-22T10:49:53;13.77;68.31
67641;SHT31;54434;50.096;20.082;2022-10-22T10:52:51;13.74;68.39
67641;SHT31;54434;50.096;20.082;2022-10-22T10:55:41;13.73;68.63
67641;SHT31;54434;50.096;20.082;2022-10-22T10:58:36;13.70;69.00
67641;SHT31;54434;50.096;20.082;2022-10-22T11:01:28;13.66;69.41
67641;SHT31;54434;50.096;20.082;2022-10-22T11:04:46;13.60;69.82
67641;SHT31;54434;50.096;20.082;2022-10-22T11:07:41;13.52;70.24
67641;SHT31;54434;50.096;20.082;2022-10-22T11:10:29;13.50;70.43
67641;SHT31;54434;50.096;20.082;2022-10-22T11:13:16;13.49;70.80
67641;SHT31;54434;50.096;20.082;2022-10-22T11:15:59;13.47;71.28
67641;SHT31;54434;50.096;20.082;2022-10-22T11:18:45;13.45;71.55
67641;SHT31;54434;50.096;20.082;2022-10-22T11:21:30;13.44;72.24
67641;SHT31;54434;50.096;20.082;2022-10-22T11:24:15;13.41;72.43
67641;SHT31;54434;50.096;20.082;2022-10-22T11:26:56;13.39;72.90
67641;SHT31;54434;50.096;20.082;2022-10-22T11:29:43;13.36;73.51
67641;SHT31;54434;50.096;20.082;2022-10-22T11:32:28;13.32;73.66
67641;SHT31;54434;50.096;20.082;2022-10-22T11:35:06;13.28;73.84
67641;SHT31;54434;50.096;20.082;2022-10-22T11:37:53;13.24;74.30
67641;SHT31;54434;50.096;20.082;2022-10-22T11:40:34;13.17;74.54
67641;SHT31;54434;50.096;20.082;2022-10-22T11:43:27;13.10;74.75
67641;SHT31;54434;50.096;20.082;2022-10-22T11:46:27;13.12;74.71
67641;SHT31;54434;50.096;20.082;2022-10-22T11:49:24;13.08;75.03
67641;SHT31;54434;50.096;20.082;2022-10-22T11:52:25;13.01;75.54
67641;SHT31;54434;50.096;20.082;2022-10-22T11:55:41;12.98;76.01
67641;SHT31;54434;50.096;20.082;2022-10-22T11:58:29;12.93;76.42
67641;SHT31;54434;50.096;20.082;2022-10-22T12:01:25;12.91;76.64
67641;SHT31;54434;50.096;20.082;2022-10-22T12:04:21;12.85;77.16
67641;SHT31;54434;50.096;20.082;2022-10-22T12:07:31;12.83;77.71
67641;SHT31;54434;50.096;20.082;2022-10-22T12:10:24;12.83;77.77
67641;SHT31;54434;50.096;20.082;2022-10-22T12:13:13;12.81;78.08
67641;SHT31;54434;50.096;20.082;2022-10-22T12:15:57;12.80;78.23
67641;SHT31;54434;50.096;20.082;2022-10-22T12:18:40;12.80;78.44
67641;SHT31;54434;50.096;20.082;2022-10-22T12:21:17;12.81;78.52
67641;SHT31;54434;50.096;20.082;2022-10-22T12:23:53;12.79;78.35
67641;SHT31;54434;50.096;20.082;2022-10-22T12:26:30;12.77;78.46
67641;SHT31;54434;50.096;20.082;2022-10-22T12:29:11;12.77;78.58
67641;SHT31;54434;50.096;20.082;2022-10-22T12:31:48;12.76;78.83
67641;SHT31;54434;50.096;20.082;2022-10-22T12:34:23;12.73;79.03
67641;SHT31;54434;50.096;20.082;2022-10-22T12:37:02;12.68;79.18
67641;SHT31;54434;50.096;20.082;2022-10-22T12:39:39;12.67;79.34
67641;SHT31;54434;50.096;20.082;2022-10-22T12:42:17;12.66;79.44
67641;SHT31;54434;50.096;20.082;2022-10-22T12:44:56;12.65;79.61
67641;SHT31;54434;50.096;20.082;2022-10-22T12:47:32;12.64;79.82
67641;SHT31;54434;50.096;20.082;2022-10-22T12:50:14;12.60;80.15
67641;SHT31;54434;50.096;20.082;2022-10-22T12:52:54;12.53;80.36
67641;SHT31;54434;50.096;20.082;2022-10-22T12:55:30;12.48;80.40
67641;SHT31;54434;50.096;20.082;2022-10-22T12:58:12;12.46;80.47
67641;SHT31;54434;50.096;20.082;2022-10-22T13:00:56;12.45;80.62
67641;SHT31;54434;50.096;20.082;2022-10-22T13:03:34;12.43;80.61
67641;SHT31;54434;50.096;20.082;2022-10-22T13:06:24;12.42;80.72
67641;SHT31;54434;50.096;20.082;2022-10-22T13:09:11;12.40;80.81
67641;SHT31;54434;50.096;20.082;2022-10-22T13:12:02;12.39;80.95
67641;SHT31;54434;50.096;20.082;2022-10-22T13:14:41;12.38;81.19
67641;SHT31;54434;50.096;20.082;2022-10-22T13:17:20;12.39;81.11
67641;SHT31;54434;50.096;20.082;2022-10-22T13:20:20;12.40;81.30
67641;SHT31;54434;50.096;20.082;2022-10-22T13:22:58;12.39;81.36
67641;SHT31;54434;50.096;20.082;2022-10-22T13:25:36;12.38;81.45
67641;SHT31;54434;50.096;20.082;2022-10-22T13:28:20;12.34;81.70
67641;SHT31;54434;50.096;20.082;2022-10-22T13:30:58;12.32;81.88
67641;SHT31;54434;50.096;20.082;2022-10-22T13:33:42;12.30;82.14
67641;SHT31;54434;50.096;20.082;2022-10-22T13:36:25;12.25;82.36
67641;SHT31;54434;50.096;20.082;2022-10-22T13:39:02;12.25;82.40
67641;SHT31;54434;50.096;20.082;2022-10-22T13:41:44;12.25;82.42
67641;SHT31;54434;50.096;20.082;2022-10-22T13:44:21;12.25;82.38
67641;SHT31;54434;50.096;20.082;2022-10-22T13:46:57;12.26;82.51
67641;SHT31;54434;50.096;20.082;2022-10-22T13:49:33;12.23;82.53
67641;SHT31;54434;50.096;20.082;2022-10-22T13:52:11;12.20;82.46
67641;SHT31;54434;50.096;20.082;2022-10-22T13:55:01;12.19;82.44
67641;SHT31;54434;50.096;20.082;2022-10-22T13:57:46;12.16;82.52
67641;SHT31;54434;50.096;20.082;2022-10-22T14:00:25;12.16;82.64
67641;SHT31;54434;50.096;20.082;2022-10-22T14:03:01;12.14;82.76
67641;SHT31;54434;50.096;20.082;2022-10-22T14:05:41;12.13;82.81
67641;SHT31;54434;50.096;20.082;2022-10-22T14:08:19;12.13;82.87
67641;SHT31;54434;50.096;20.082;2022-10-22T14:10:58;12.15;82.90
67641;SHT31;54434;50.096;20.082;2022-10-22T14:13:34;12.17;82.83
67641;SHT31;54434;50.096;20.082;2022-10-22T14:16:15;12.19;82.84
67641;SHT31;54434;50.096;20.082;2022-10-22T14:18:55;12.19;82.82
67641;SHT31;54434;50.096;20.082;2022-10-22T14:21:34;12.19;82.75
67641;SHT31;54434;50.096;20.082;2022-10-22T14:24:11;12.17;82.81
67641;SHT31;54434;50.096;20.082;2022-10-22T14:26:48;12.14;82.82
67641;SHT31;54434;50.096;20.082;2022-10-22T14:29:24;12.12;82.75
67641;SHT31;54434;50.096;20.082;2022-10-22T14:32:00;12.08;82.77
67641;SHT31;54434;50.096;20.082;2022-10-22T14:34:38;12.06;82.80
67641;SHT31;54434;50.096;20.082;2022-10-22T14:37:19;12.03;82.94
67641;SHT31;54434;50.096;20.082;2022-10-22T14:39:55;11.99;83.07
67641;SHT31;54434;50.096;20.082;2022-10-22T14:42:33;11.96;83.13
67641;SHT31;54434;50.096;20.082;2022-10-22T14:45:18;11.95;83.25
67641;SHT31;54434;50.096;20.082;2022-10-22T14:47:57;11.92;83.37
67641;SHT31;54434;50.096;20.082;2022-10-22T14:50:33;11.89;83.53
67641;SHT31;54434;50.096;20.082;2022-10-22T14:53:09;11.87;83.67
67641;SHT31;54434;50.096;20.082;2022-10-22T14:55:47;11.84;83.94
67641;SHT31;54434;50.096;20.082;2022-10-22T14:58:28;11.79;84.11
67641;SHT31;54434;50.096;20.082;2022-10-22T15:01:04;11.77;84.24
67641;SHT31;54434;50.096;20.082;2022-10-22T15:03:41;11.74;84.30
67641;SHT31;54434;50.096;20.082;2022-10-22T15:06:17;11.73;84.47
67641;SHT31;54434;50.096;20.082;2022-10-22T15:08:53;11.68;84.69
67641;SHT31;54434;50.096;20.082;2022-10-22T15:11:29;11.66;84.79
67641;SHT31;54434;50.096;20.082;2022-10-22T15:14:05;11.63;84.99
67641;SHT31;54434;50.096;20.082;2022-10-22T15:16:41;11.61;85.12
67641;SHT31;54434;50.096;20.082;2022-10-22T15:19:16;11.60;85.17
67641;SHT31;54434;50.096;20.082;2022-10-22T15:21:52;11.60;85.28
67641;SHT31;54434;50.096;20.082;2022-10-22T15:24:28;11.61;85.29
67641;SHT31;54434;50.096;20.082;2022-10-22T15:27:04;11.60;85.41
67641;SHT31;54434;50.096;20.082;2022-10-22T15:29:41;11.57;85.64
67641;SHT31;54434;50.096;20.082;2022-10-22T15:32:17;11.54;85.82
67641;SHT31;54434;50.096;20.082;2022-10-22T15:34:54;11.52;86.01
67641;SHT31;54434;50.096;20.082;2022-10-22T15:37:33;11.50;86.11
67641;SHT31;54434;50.096;20.082;2022-10-22T15:40:11;11.49;86.15
67641;SHT31;54434;50.096;20.082;2022-10-22T15:42:47;11.48;86.24
67641;SHT31;54434;50.096;20.082;2022-10-22T15:45:23;11.45;86.37
67641;SHT31;54434;50.096;20.082;2022-10-22T15:48:00;11.45;86.53
67641;SHT31;54434;50.096;20.082;2022-10-22T15:50:39;11.44;86.62
67641;SHT31;54434;50.096;20.082;2022-10-22T15:53:14;11.43;86.84
67641;SHT31;54434;50.096;20.082;2022-10-22T15:55:51;11.41;87.07
67641;SHT31;54434;50.096;20.082;2022-10-22T15:58:27;11.40;87.29
67641;SHT31;54434;50.096;20.082;2022-10-22T16:01:07;11.37;87.42
67641;SHT31;54434;50.096;20.082;2022-10-22T16:03:46;11.37;87.53
67641;SHT31;54434;50.096;20.082;2022-10-22T16:06:32;11.37;87.61
67641;SHT31;54434;50.096;20.082;2022-10-22T16:09:13;11.39;87.61
67641;SHT31;54434;50.096;20.082;2022-10-22T16:11:52;11.41;87.64
67641;SHT31;54434;50.096;20.082;2022-10-22T16:14:28;11.41;87.61
67641;SHT31;54434;50.096;20.082;2022-10-22T16:17:04;11.43;87.65
67641;SHT31;54434;50.096;20.082;2022-10-22T16:19:40;11.44;87.68
67641;SHT31;54434;50.096;20.082;2022-10-22T16:22:16;11.45;87.73
67641;SHT31;54434;50.096;20.082;2022-10-22T16:24:52;11.46;87.83
67641;SHT31;54434;50.096;20.082;2022-10-22T16:27:28;11.45;87.99
67641;SHT31;54434;50.096;20.082;2022-10-22T16:30:06;11.44;88.07
67641;SHT31;54434;50.096;20.082;2022-10-22T16:32:43;11.45;88.09
67641;SHT31;54434;50.096;20.082;2022-10-22T16:35:19;11.46;88.11
67641;SHT31;54434;50.096;20.082;2022-10-22T16:37:54;11.45;88.25
67641;SHT31;54434;50.096;20.082;2022-10-22T16:40:30;11.45;88.29
67641;SHT31;54434;50.096;20.082;2022-10-22T16:43:06;11.46;88.35
67641;SHT31;54434;50.096;20.082;2022-10-22T16:45:48;11.47;88.50
67641;SHT31;54434;50.096;20.082;2022-10-22T16:48:24;11.47;88.52
67641;SHT31;54434;50.096;20.082;2022-10-22T16:51:03;11.50;88.50